Time;durP1;ratioP1;P1;durP2;ratioP2;P2;SDS_P1;SDS_P2;PMS_P1;PMS_P2;Temp;Humidity;BMP_temperature;BMP_pressure;BME280_temperature;BME280_humidity;BME280_pressure;Samples;Min_cycle;Max_cycle;Signal;HPM_P1;HPM_P2
2023/01/02 00:01:26;;;;;;;;;;;;;;;;;;4994156;28;20384;-88
2023/01/02 00:03:51;;;;;;;;;;;;;;;;;;4992869;28;20324;-89
2023/01/02 00:06:17;;;;;;;;;;;;;;;;;;5002744;28;19914;-86
2023/01/02 00:08:42;;;;;;;;;;;;;;;;;;5013584;28;20400;-87
2023/01/02 00:11:08;;;;;;;;;;;;;;;;;;5013945;28;20373;-88
2023/01/02 00:13:33;;;;;;;;;;;;;;;;;;5014596;28;19914;-86
2023/01/02 00:15:59;;;;;;;;;;;;;;;;;;5012591;28;19914;-88
2023/01/02 00:18:24;;;;;;;;;;;;;;;;;;5014541;28;19960;-88
2023/01/02 00:20:50;;;;;;;;;;;;;;;;;;5013228;28;19986;-87
2023/01/02 00:23:15;;;;;;;;;;;;;;;;;;5029510;28;20304;-88
2023/01/02 00:25:40;;;;;;;;;;;;;;;;;;4993766;28;20324;-87
2023/01/02 00:28:06;;;;;;;;;;;;;;;;;;5000694;28;20530;-89
2023/01/02 00:30:31;;;;;;;;;;;;;;;;;;5020274;28;19915;-89
2023/01/02 00:32:57;;;;;;;;;;;;;;;;;;5020911;28;19940;-90
2023/01/02 00:35:25;;;;;;;;;;;;;;;;;;5019688;28;19914;-87
2023/01/02 00:37:50;;;;;;;;;;;;;;;;;;5019235;28;20258;-88
2023/01/02 00:40:19;;;;;;;;;;;;;;;;;;5019810;28;19914;-89
2023/01/02 00:42:44;;;;;;;;;;;;;;;;;;5018768;28;20006;-89
2023/01/02 00:45:10;;;;;;;;;;;;;;;;;;4981601;28;19952;-87
2023/01/02 00:47:35;;;;;;;;;;;;;;;;;;4964363;28;19969;-89
2023/01/02 00:50:00;;;;;;;;;;;;;;;;;;4980380;28;19941;-90
2023/01/02 00:52:26;;;;;;;;;;;;;;;;;;4980175;28;19914;-91
2023/01/02 00:54:51;;;;;;;;;;;;;;;;;;4999156;28;19921;-90
2023/01/02 00:57:17;;;;;;;;;;;;;;;;;;5013698;28;19918;-90
2023/01/02 00:59:42;;;;;;;;;;;;;;;;;;5009347;28;19914;-91
2023/01/02 01:02:08;;;;;;;;;;;;;;;;;;5000055;28;20285;-89
2023/01/02 01:04:36;;;;;;;;;;;;;;;;;;5016420;28;19909;-88
2023/01/02 01:07:02;;;;;;;;;;;;;;;;;;4999964;28;19968;-89
2023/01/02 01:09:27;;;;;;;;;;;;;;;;;;5017746;28;20004;-88
2023/01/02 01:11:53;;;;;;;;;;;;;;;;;;5018850;28;19918;-91
2023/01/02 01:14:18;;;;;;;;;;;;;;;;;;5001046;28;20016;-90
2023/01/02 01:16:43;;;;;;;;;;;;;;;;;;5005222;28;20448;-87
2023/01/02 01:19:09;;;;;;;;;;;;;;;;;;5014404;28;19909;-88
2023/01/02 01:21:34;;;;;;;;;;;;;;;;;;5016608;28;19918;-90
2023/01/02 01:24:00;;;;;;;;;;;;;;;;;;5016031;28;20024;-88
2023/01/02 01:26:25;;;;;;;;;;;;;;;;;;5000486;28;19933;-89
2023/01/02 01:28:51;;;;;;;;;;;;;;;;;;5017590;28;19914;-86
2023/01/02 01:31:16;;;;;;;;;;;;;;;;;;5016656;28;19932;-89
2023/01/02 01:33:42;;;;;;;;;;;;;;;;;;5017496;28;19929;-87
2023/01/02 01:36:07;;;;;;;;;;;;;;;;;;5013102;28;19914;-89
2023/01/02 01:38:33;;;;;;;;;;;;;;;;;;5001500;28;20385;-91
2023/01/02 01:40:58;;;;;;;;;;;;;;;;;;5019742;28;19920;-90
2023/01/02 01:43:23;;;;;;;;;;;;;;;;;;4985879;28;19917;-86
2023/01/02 01:45:49;;;;;;;;;;;;;;;;;;5018059;28;20389;-88
2023/01/02 01:48:14;;;;;;;;;;;;;;;;;;4986188;28;20396;-90
2023/01/02 01:50:40;;;;;;;;;;;;;;;;;;4986542;28;19921;-91
2023/01/02 01:53:05;;;;;;;;;;;;;;;;;;4986408;28;19914;-91
2023/01/02 01:55:31;;;;;;;;;;;;;;;;;;4982386;28;19920;-90
2023/01/02 01:57:56;;;;;;;;;;;;;;;;;;4966395;28;20002;-89
2023/01/02 02:00:21;;;;;;;;;;;;;;;;;;4998256;28;20419;-90
2023/01/02 02:02:47;;;;;;;;;;;;;;;;;;4997199;28;19937;-88
2023/01/02 02:05:12;;;;;;;;;;;;;;;;;;4980733;28;19921;-90
2023/01/02 02:07:38;;;;;;;;;;;;;;;;;;4994950;28;19924;-88
2023/01/02 02:10:03;;;;;;;;;;;;;;;;;;4974684;28;20340;-88
2023/01/02 02:12:29;;;;;;;;;;;;;;;;;;4995003;28;19957;-87
2023/01/02 02:14:54;;;;;;;;;;;;;;;;;;4995962;28;19945;-89
2023/01/02 02:17:19;;;;;;;;;;;;;;;;;;4994808;28;19913;-88
2023/01/02 02:19:45;;;;;;;;;;;;;;;;;;4994724;28;19947;-87
2023/01/02 02:22:10;;;;;;;;;;;;;;;;;;4978536;28;20381;-90
2023/01/02 02:24:36;;;;;;;;;;;;;;;;;;4994758;28;19964;-90
2023/01/02 02:27:01;;;;;;;;;;;;;;;;;;5006719;28;19929;-88
2023/01/02 02:29:27;;;;;;;;;;;;;;;;;;4981890;28;19924;-87
2023/01/02 02:31:52;;;;;;;;;;;;;;;;;;4998195;28;20407;-90
2023/01/02 02:34:17;;;;;;;;;;;;;;;;;;5015328;28;19916;-86
2023/01/02 02:36:43;;;;;;;;;;;;;;;;;;5014270;28;19917;-88
2023/01/02 02:39:08;;;;;;;;;;;;;;;;;;4997971;28;20388;-86
2023/01/02 02:41:34;;;;;;;;;;;;;;;;;;5015619;28;19913;-89
2023/01/02 02:43:59;;;;;;;;;;;;;;;;;;4997841;28;19920;-89
2023/01/02 02:46:24;;;;;;;;;;;;;;;;;;5016435;28;19914;-88
2023/01/02 02:48:50;;;;;;;;;;;;;;;;;;5016933;28;19909;-88
2023/01/02 02:51:15;;;;;;;;;;;;;;;;;;5014095;28;20028;-88
2023/01/02 02:53:40;;;;;;;;;;;;;;;;;;4998935;28;20293;-88
2023/01/02 02:56:06;;;;;;;;;;;;;;;;;;5015414;28;20361;-88
2023/01/02 02:58:31;;;;;;;;;;;;;;;;;;5016691;28;19928;-86
2023/01/02 03:00:57;;;;;;;;;;;;;;;;;;5015736;28;20343;-89
2023/01/02 03:03:22;;;;;;;;;;;;;;;;;;5018163;28;19918;-87
2023/01/02 03:05:47;;;;;;;;;;;;;;;;;;5001168;28;19913;-90
2023/01/02 03:08:13;;;;;;;;;;;;;;;;;;5005230;28;19920;-88
2023/01/02 03:10:38;;;;;;;;;;;;;;;;;;5008687;28;19913;-87
2023/01/02 03:13:03;;;;;;;;;;;;;;;;;;5029234;28;19913;-86
2023/01/02 03:15:29;;;;;;;;;;;;;;;;;;5014161;28;19924;-87
2023/01/02 03:17:54;;;;;;;;;;;;;;;;;;5012431;28;19928;-89
2023/01/02 03:20:20;;;;;;;;;;;;;;;;;;5012081;28;19917;-89
2023/01/02 03:22:45;;;;;;;;;;;;;;;;;;5011012;28;19924;-86
2023/01/02 03:25:11;;;;;;;;;;;;;;;;;;4990520;28;20318;-86
2023/01/02 03:27:37;;;;;;;;;;;;;;;;;;4986015;28;19991;-88
2023/01/02 03:30:02;;;;;;;;;;;;;;;;;;4984968;28;20301;-89
2023/01/02 03:32:28;;;;;;;;;;;;;;;;;;4999250;28;19920;-88
2023/01/02 03:34:53;;;;;;;;;;;;;;;;;;5014890;28;19953;-89
2023/01/02 03:37:19;;;;;;;;;;;;;;;;;;5015233;28;19920;-86
2023/01/02 03:39:45;;;;;;;;;;;;;;;;;;4999750;28;19921;-89
2023/01/02 03:42:10;;;;;;;;;;;;;;;;;;5017361;28;19964;-88
2023/01/02 03:44:36;;;;;;;;;;;;;;;;;;5015122;28;19948;-88
2023/01/02 03:47:01;;;;;;;;;;;;;;;;;;5012954;28;20008;-88
2023/01/02 03:49:26;;;;;;;;;;;;;;;;;;4996758;28;20336;-88
2023/01/02 03:51:52;;;;;;;;;;;;;;;;;;4996946;28;19914;-89
2023/01/02 03:54:17;;;;;;;;;;;;;;;;;;5014038;28;19925;-88
2023/01/02 03:56:42;;;;;;;;;;;;;;;;;;5015203;28;19914;-89
2023/01/02 03:59:08;;;;;;;;;;;;;;;;;;5014574;28;19914;-90
2023/01/02 04:01:33;;;;;;;;;;;;;;;;;;4998094;28;19920;-89
2023/01/02 04:03:59;;;;;;;;;;;;;;;;;;5015428;28;19914;-89
2023/01/02 04:06:25;;;;;;;;;;;;;;;;;;4998104;28;20272;-90
2023/01/02 04:08:51;;;;;;;;;;;;;;;;;;4999256;28;19921;-90
2023/01/02 04:11:16;;;;;;;;;;;;;;;;;;5014951;28;20137;-89
2023/01/02 04:13:42;;;;;;;;;;;;;;;;;;5014082;28;19914;-89
2023/01/02 04:16:07;;;;;;;;;;;;;;;;;;4983878;28;19918;-90
2023/01/02 04:18:32;;;;;;;;;;;;;;;;;;4983882;28;19913;-88
2023/01/02 04:20:58;;;;;;;;;;;;;;;;;;5016658;28;19913;-87
2023/01/02 04:23:23;;;;;;;;;;;;;;;;;;4983278;28;20304;-90
2023/01/02 04:25:48;;;;;;;;;;;;;;;;;;5015752;28;19921;-90
2023/01/02 04:28:14;;;;;;;;;;;;;;;;;;5002406;28;19918;-88
2023/01/02 04:30:39;;;;;;;;;;;;;;;;;;5016216;28;19917;-88
2023/01/02 04:33:05;;;;;;;;;;;;;;;;;;5019903;28;19909;-86
2023/01/02 04:35:30;;;;;;;;;;;;;;;;;;5001895;28;19982;-90
2023/01/02 04:37:55;;;;;;;;;;;;;;;;;;5033796;28;20278;-89
2023/01/02 04:40:22;;;;;;;;;;;;;;;;;;5019907;28;19921;-89
2023/01/02 04:42:48;;;;;;;;;;;;;;;;;;5039977;28;19917;-88
2023/01/02 04:45:14;;;;;;;;;;;;;;;;;;4999176;28;19928;-89
2023/01/02 04:47:40;;;;;;;;;;;;;;;;;;4997451;28;19914;-89
2023/01/02 04:50:05;;;;;;;;;;;;;;;;;;4997038;28;20004;-90
2023/01/02 04:52:31;;;;;;;;;;;;;;;;;;4994466;28;19913;-89
2023/01/02 04:54:56;;;;;;;;;;;;;;;;;;5011269;28;19914;-90
2023/01/02 04:57:21;;;;;;;;;;;;;;;;;;4993894;28;19913;-90
2023/01/02 04:59:47;;;;;;;;;;;;;;;;;;4962597;28;20267;-88
2023/01/02 05:02:12;;;;;;;;;;;;;;;;;;4999017;28;19971;-89
2023/01/02 05:04:38;;;;;;;;;;;;;;;;;;4994363;28;20416;-89
2023/01/02 05:07:03;;;;;;;;;;;;;;;;;;4994390;28;19914;-89
2023/01/02 05:09:29;;;;;;;;;;;;;;;;;;4992142;28;19914;-88
2023/01/02 05:11:54;;;;;;;;;;;;;;;;;;4959156;28;19914;-89
2023/01/02 05:14:22;;;;;;;;;;;;;;;;;;4993626;28;19913;-90
2023/01/02 05:16:47;;;;;;;;;;;;;;;;;;4963066;28;20381;-90
2023/01/02 05:19:12;;;;;;;;;;;;;;;;;;5015085;28;20449;-88
2023/01/02 05:24:22;;;;;;;;;;;;;;;;;;4978719;28;19914;-90
2023/01/02 05:26:47;;;;;;;;;;;;;;;;;;4996401;28;19936;-90
2023/01/02 05:29:13;;;;;;;;;;;;;;;;;;4979278;28;19964;-89
2023/01/02 05:31:38;;;;;;;;;;;;;;;;;;4962758;28;20292;-87
2023/01/02 05:34:18;;;;;;;;;;;;;;;;;;5089801;27;19951;-88
2023/01/02 05:36:43;;;;;;;;;;;;;;;;;;5071300;28;19912;-90
2023/01/02 05:39:10;;;;;;;;;;;;;;;;;;5055394;28;19913;-88
2023/01/02 05:41:38;;;;;;;;;;;;;;;;;;5055607;28;20007;-89
2023/01/02 05:44:03;;;;;;;;;;;;;;;;;;5055411;28;19974;-88
2023/01/02 05:46:28;;;;;;;;;;;;;;;;;;5055524;28;19916;-88
2023/01/02 05:48:54;;;;;;;;;;;;;;;;;;5071657;28;20372;-89
2023/01/02 05:51:19;;;;;;;;;;;;;;;;;;5053076;28;20021;-89
2023/01/02 05:53:45;;;;;;;;;;;;;;;;;;5067754;28;19921;-89
2023/01/02 05:56:10;;;;;;;;;;;;;;;;;;5052543;28;19924;-88
2023/01/02 05:58:35;;;;;;;;;;;;;;;;;;5083359;28;20379;-90
2023/01/02 06:01:01;;;;;;;;;;;;;;;;;;5088799;28;19935;-89
2023/01/02 06:03:26;;;;;;;;;;;;;;;;;;5090586;28;19958;-87
2023/01/02 06:05:52;;;;;;;;;;;;;;;;;;5090189;28;19913;-87
2023/01/02 06:08:17;;;;;;;;;;;;;;;;;;5089565;28;19966;-87
2023/01/02 06:10:42;;;;;;;;;;;;;;;;;;5058289;28;19919;-87
2023/01/02 06:13:08;;;;;;;;;;;;;;;;;;5067359;28;19917;-89
2023/01/02 06:15:33;;;;;;;;;;;;;;;;;;5053508;28;19960;-86
2023/01/02 06:17:58;;;;;;;;;;;;;;;;;;5073911;28;19913;-88
2023/01/02 06:20:24;;;;;;;;;;;;;;;;;;5078465;28;20307;-87
2023/01/02 06:22:49;;;;;;;;;;;;;;;;;;5073739;28;19917;-88
2023/01/02 06:25:14;;;;;;;;;;;;;;;;;;5074521;28;20402;-87
2023/01/02 06:27:40;;;;;;;;;;;;;;;;;;5073267;28;19917;-88
2023/01/02 06:30:05;;;;;;;;;;;;;;;;;;5073281;28;19913;-88
2023/01/02 06:32:31;;;;;;;;;;;;;;;;;;5074376;28;20282;-88
2023/01/02 06:34:56;;;;;;;;;;;;;;;;;;5054134;28;19913;-87
2023/01/02 06:37:21;;;;;;;;;;;;;;;;;;5087854;28;19916;-88
2023/01/02 06:39:47;;;;;;;;;;;;;;;;;;5088764;28;19912;-89
2023/01/02 06:42:12;;;;;;;;;;;;;;;;;;5070926;28;19912;-88
2023/01/02 06:44:38;;;;;;;;;;;;;;;;;;5080589;28;19916;-89
2023/01/02 06:47:03;;;;;;;;;;;;;;;;;;5073817;28;19912;-89
2023/01/02 06:49:28;;;;;;;;;;;;;;;;;;5074280;28;19919;-89
2023/01/02 06:51:54;;;;;;;;;;;;;;;;;;5057082;28;19917;-90
2023/01/02 06:54:19;;;;;;;;;;;;;;;;;;5073650;28;19966;-89
2023/01/02 06:56:45;;;;;;;;;;;;;;;;;;5075152;28;20330;-88
2023/01/02 06:59:10;;;;;;;;;;;;;;;;;;5057526;28;19959;-88
2023/01/02 07:01:35;;;;;;;;;;;;;;;;;;5073740;28;20294;-89
2023/01/02 07:04:01;;;;;;;;;;;;;;;;;;5074860;28;19913;-88
2023/01/02 07:06:26;;;;;;;;;;;;;;;;;;5073541;28;19912;-87
2023/01/02 07:08:52;;;;;;;;;;;;;;;;;;5074009;28;19919;-89
2023/01/02 07:11:17;;;;;;;;;;;;;;;;;;5073454;28;20011;-89
2023/01/02 07:13:43;;;;;;;;;;;;;;;;;;5074289;28;19939;-88
2023/01/02 07:16:08;;;;;;;;;;;;;;;;;;5074776;28;19912;-88
2023/01/02 07:18:34;;;;;;;;;;;;;;;;;;5074591;28;20414;-89
2023/01/02 07:20:59;;;;;;;;;;;;;;;;;;5073102;28;19923;-89
2023/01/02 07:23:25;;;;;;;;;;;;;;;;;;5056899;28;19999;-89
2023/01/02 07:25:50;;;;;;;;;;;;;;;;;;5056427;28;19923;-89
2023/01/02 07:28:15;;;;;;;;;;;;;;;;;;5073228;28;19958;-88
2023/01/02 07:30:41;;;;;;;;;;;;;;;;;;5074594;28;19912;-88
2023/01/02 07:33:06;;;;;;;;;;;;;;;;;;5073967;28;20380;-89
2023/01/02 07:35:32;;;;;;;;;;;;;;;;;;5074094;28;19912;-89
2023/01/02 07:37:57;;;;;;;;;;;;;;;;;;5056287;28;20307;-89
2023/01/02 07:40:22;;;;;;;;;;;;;;;;;;5056408;28;20015;-88
2023/01/02 07:42:48;;;;;;;;;;;;;;;;;;5073707;28;19977;-87
2023/01/02 07:45:13;;;;;;;;;;;;;;;;;;5073518;28;19920;-87
2023/01/02 07:47:39;;;;;;;;;;;;;;;;;;5072157;28;19913;-89
2023/01/02 07:50:04;;;;;;;;;;;;;;;;;;5073611;28;20449;-89
2023/01/02 07:52:30;;;;;;;;;;;;;;;;;;5073482;28;19920;-88
2023/01/02 07:54:55;;;;;;;;;;;;;;;;;;5073765;28;20268;-89
2023/01/02 07:57:21;;;;;;;;;;;;;;;;;;5071221;28;19963;-89
2023/01/02 07:59:46;;;;;;;;;;;;;;;;;;5073580;28;19923;-88
2023/01/02 08:02:11;;;;;;;;;;;;;;;;;;5072404;28;19912;-88
2023/01/02 08:04:37;;;;;;;;;;;;;;;;;;5073094;28;20435;-88
2023/01/02 08:07:02;;;;;;;;;;;;;;;;;;5055850;28;20305;-88
2023/01/02 08:09:27;;;;;;;;;;;;;;;;;;5072353;28;19916;-87
2023/01/02 08:11:53;;;;;;;;;;;;;;;;;;5055828;28;19913;-87
2023/01/02 08:14:18;;;;;;;;;;;;;;;;;;5055033;28;19955;-87
2023/01/02 08:16:44;;;;;;;;;;;;;;;;;;5073157;28;19912;-87
2023/01/02 08:19:09;;;;;;;;;;;;;;;;;;5073389;28;19913;-88
2023/01/02 08:21:35;;;;;;;;;;;;;;;;;;5072833;28;19936;-87
2023/01/02 08:24:00;;;;;;;;;;;;;;;;;;5074272;28;20003;-87
2023/01/02 08:26:25;;;;;;;;;;;;;;;;;;5073034;28;20341;-87
2023/01/02 08:28:51;;;;;;;;;;;;;;;;;;5071505;28;19999;-88
2023/01/02 08:31:16;;;;;;;;;;;;;;;;;;5054887;28;19912;-89
2023/01/02 08:33:41;;;;;;;;;;;;;;;;;;5071367;28;19947;-87
2023/01/02 08:36:07;;;;;;;;;;;;;;;;;;5071572;28;20379;-88
2023/01/02 08:38:32;;;;;;;;;;;;;;;;;;5072070;28;19920;-87
2023/01/02 08:40:58;;;;;;;;;;;;;;;;;;5072313;28;19913;-88
2023/01/02 08:43:23;;;;;;;;;;;;;;;;;;5072029;28;20387;-89
2023/01/02 08:45:49;;;;;;;;;;;;;;;;;;5073253;28;20288;-88
2023/01/02 08:48:14;;;;;;;;;;;;;;;;;;5055808;28;19913;-88
2023/01/02 08:50:40;;;;;;;;;;;;;;;;;;5056044;28;19916;-87
2023/01/02 08:53:05;;;;;;;;;;;;;;;;;;5055897;28;19916;-87
2023/01/02 08:55:30;;;;;;;;;;;;;;;;;;5057137;28;19946;-87
2023/01/02 08:57:56;;;;;;;;;;;;;;;;;;5075065;28;19920;-85
2023/01/02 09:00:21;;;;;;;;;;;;;;;;;;5077858;28;19964;-87
2023/01/02 09:02:47;;;;;;;;;;;;;;;;;;5059809;28;19952;-86
2023/01/02 09:05:12;;;;;;;;;;;;;;;;;;5075151;28;19916;-88
2023/01/02 09:07:38;;;;;;;;;;;;;;;;;;5075507;28;19913;-85
2023/01/02 09:10:03;;;;;;;;;;;;;;;;;;5075199;28;19955;-88
2023/01/02 09:12:28;;;;;;;;;;;;;;;;;;5076522;28;19916;-86
2023/01/02 09:14:54;;;;;;;;;;;;;;;;;;5083554;28;20375;-87
2023/01/02 09:17:20;;;;;;;;;;;;;;;;;;5079210;28;19912;-84
2023/01/02 09:19:45;;;;;;;;;;;;;;;;;;5057509;28;19961;-87
2023/01/02 09:22:11;;;;;;;;;;;;;;;;;;5073102;28;20034;-87
2023/01/02 09:24:36;;;;;;;;;;;;;;;;;;5055553;28;20351;-87
2023/01/02 09:27:01;;;;;;;;;;;;;;;;;;5072361;28;19912;-87
2023/01/02 09:29:27;;;;;;;;;;;;;;;;;;5075052;28;20299;-85
2023/01/02 09:31:52;;;;;;;;;;;;;;;;;;5072930;28;19959;-85
2023/01/02 09:34:18;;;;;;;;;;;;;;;;;;5076290;28;19923;-86
2023/01/02 09:36:43;;;;;;;;;;;;;;;;;;5075879;28;20375;-86
2023/01/02 09:39:09;;;;;;;;;;;;;;;;;;5077491;28;19934;-88
2023/01/02 09:41:34;;;;;;;;;;;;;;;;;;5085263;28;19940;-83
2023/01/02 09:44:00;;;;;;;;;;;;;;;;;;5085247;28;19913;-85
2023/01/02 09:46:25;;;;;;;;;;;;;;;;;;5084506;28;19919;-86
2023/01/02 09:48:50;;;;;;;;;;;;;;;;;;5089380;28;19901;-87
2023/01/02 09:51:16;;;;;;;;;;;;;;;;;;5092801;28;19912;-88
2023/01/02 09:53:41;;;;;;;;;;;;;;;;;;5091890;28;19917;-86
2023/01/02 09:56:10;;;;;;;;;;;;;;;;;;5092642;28;19957;-89
2023/01/02 09:58:35;;;;;;;;;;;;;;;;;;5062629;28;19963;-90
2023/01/02 10:01:00;;;;;;;;;;;;;;;;;;5061893;28;19916;-91
2023/01/02 10:03:26;;;;;;;;;;;;;;;;;;5053975;28;20279;-91
2023/01/02 10:05:51;;;;;;;;;;;;;;;;;;5065252;28;19912;-89
2023/01/02 10:08:17;;;;;;;;;;;;;;;;;;5060085;28;20392;-87
2023/01/02 10:10:42;;;;;;;;;;;;;;;;;;5075648;28;19913;-88
2023/01/02 10:13:08;;;;;;;;;;;;;;;;;;5055720;28;19924;-90
2023/01/02 10:15:33;;;;;;;;;;;;;;;;;;5072397;28;19962;-90
2023/01/02 10:17:59;;;;;;;;;;;;;;;;;;5057662;28;20003;-91
2023/01/02 10:20:26;;;;;;;;;;;;;;;;;;5077521;28;19912;-92
2023/01/02 10:22:51;;;;;;;;;;;;;;;;;;5044550;28;19995;-91
2023/01/02 10:25:17;;;;;;;;;;;;;;;;;;5047376;28;19948;-92
2023/01/02 10:27:43;;;;;;;;;;;;;;;;;;5044499;28;19971;-91
2023/01/02 10:30:08;;;;;;;;;;;;;;;;;;5059852;28;19912;-90
2023/01/02 10:32:33;;;;;;;;;;;;;;;;;;5075409;28;19942;-89
2023/01/02 10:34:59;;;;;;;;;;;;;;;;;;5076185;28;19998;-89
2023/01/02 10:37:24;;;;;;;;;;;;;;;;;;5075302;28;20273;-88
2023/01/02 10:39:50;;;;;;;;;;;;;;;;;;5075883;28;19974;-89
2023/01/02 10:42:15;;;;;;;;;;;;;;;;;;5075503;28;20490;-88
2023/01/02 10:44:41;;;;;;;;;;;;;;;;;;5075711;28;20375;-89
2023/01/02 10:47:06;;;;;;;;;;;;;;;;;;5088016;28;19939;-89
2023/01/02 10:49:33;;;;;;;;;;;;;;;;;;5068289;28;20000;-90
2023/01/02 10:51:59;;;;;;;;;;;;;;;;;;5100417;28;19912;-86
2023/01/02 10:54:33;;;;;;;;;;;;;;;;;;5067049;28;20007;-87
2023/01/02 10:56:58;;;;;;;;;;;;;;;;;;5099478;28;19912;-89
2023/01/02 10:59:24;;;;;;;;;;;;;;;;;;5065483;28;19933;-88
2023/01/02 11:01:50;;;;;;;;;;;;;;;;;;5096830;28;19916;-86
2023/01/02 11:04:18;;;;;;;;;;;;;;;;;;5097817;28;19981;-91
2023/01/02 11:06:46;;;;;;;;;;;;;;;;;;5086736;28;19920;-90
2023/01/02 11:09:12;;;;;;;;;;;;;;;;;;5067489;28;19919;-90
2023/01/02 11:11:38;;;;;;;;;;;;;;;;;;5085118;28;19919;-93
2023/01/02 11:14:04;;;;;;;;;;;;;;;;;;5060290;28;20363;-91
2023/01/02 11:16:29;;;;;;;;;;;;;;;;;;5077577;28;19927;-91
2023/01/02 11:18:57;;;;;;;;;;;;;;;;;;5076766;28;19912;-85
2023/01/02 11:21:22;;;;;;;;;;;;;;;;;;5076538;28;20373;-88
2023/01/02 11:23:48;;;;;;;;;;;;;;;;;;5094083;28;19920;-87
2023/01/02 11:26:13;;;;;;;;;;;;;;;;;;5094530;28;20010;-86
2023/01/02 11:28:40;;;;;;;;;;;;;;;;;;5096950;28;19916;-85
2023/01/02 11:31:06;;;;;;;;;;;;;;;;;;5095069;28;19919;-85
2023/01/02 11:33:31;;;;;;;;;;;;;;;;;;5076619;28;19916;-83
2023/01/02 11:35:57;;;;;;;;;;;;;;;;;;5096711;28;19912;-84
2023/01/02 11:38:22;;;;;;;;;;;;;;;;;;5096822;28;20263;-85
2023/01/02 11:40:48;;;;;;;;;;;;;;;;;;5097472;28;19939;-87
2023/01/02 11:45:57;;;;;;;;;;;;;;;;;;5087481;23;19925;-88
2023/01/02 11:48:23;;;;;;;;;;;;;;;;;;5034856;28;19913;-88
2023/01/02 11:50:54;;;;;;;;;;;;;;;;;;5069435;28;19924;-87
2023/01/02 11:53:27;;;;;;;;;;;;;;;;;;5048534;28;19999;-88
2023/01/02 11:56:06;;;;;;;;;;;;;;;;;;;;;
2023/01/02 11:58:35;;;;;;;;;;;;;;;;;;5067264;28;19923;-88
2023/01/02 12:01:11;;;;;;;;;;;;;;;;;;5067859;28;19941;-88
2023/01/02 12:03:57;;;;;;;;;;;;;;;;;;5048119;28;19913;-88
2023/01/02 12:06:29;;;;;;;;;;;;;;;;;;5048063;28;19913;-87
2023/01/02 12:09:17;;;;;;;;;;;;;;;;;;5048972;28;19919;-87
2023/01/02 12:11:53;;;;;;;;;;;;;;;;;;5048016;28;20004;-85
2023/01/02 12:14:21;;;;;;;;;;;;;;;;;;5063619;28;19917;-89
2023/01/02 12:16:59;;;;;;;;;;;;;;;;;;5036871;28;19960;-88
2023/01/02 12:19:26;;;;;;;;;;;;;;;;;;5044399;28;19913;-87
2023/01/02 12:21:52;;;;;;;;;;;;;;;;;;5056988;28;19920;-87
2023/01/02 12:24:17;;;;;;;;;;;;;;;;;;5059093;28;19913;-86
2023/01/02 12:26:43;;;;;;;;;;;;;;;;;;5050976;28;19913;-86
2023/01/02 12:29:08;;;;;;;;;;;;;;;;;;5063650;28;19913;-88
2023/01/02 12:31:34;;;;;;;;;;;;;;;;;;5042017;28;19917;-86
2023/01/02 12:33:59;;;;;;;;;;;;;;;;;;5017429;28;20361;-88
2023/01/02 12:36:25;;;;;;;;;;;;;;;;;;5051908;28;19923;-87
2023/01/02 12:38:50;;;;;;;;;;;;;;;;;;5055466;28;20016;-86
2023/01/02 12:41:15;;;;;;;;;;;;;;;;;;5056346;28;20000;-83
2023/01/02 12:43:44;;;;;;;;;;;;;;;;;;5063283;28;19936;-89
2023/01/02 12:46:10;;;;;;;;;;;;;;;;;;5064707;28;20007;-87
2023/01/02 12:48:35;;;;;;;;;;;;;;;;;;5024165;28;19955;-87
2023/01/02 12:51:04;;;;;;;;;;;;;;;;;;5005067;28;19913;-88
2023/01/02 12:53:30;;;;;;;;;;;;;;;;;;5021768;28;19917;-88
2023/01/02 12:55:58;;;;;;;;;;;;;;;;;;5021102;28;19919;-88
2023/01/02 12:58:26;;;;;;;;;;;;;;;;;;5040658;28;19916;-90
2023/01/02 13:00:51;;;;;;;;;;;;;;;;;;5037896;28;20360;-79
2023/01/02 13:03:17;;;;;;;;;;;;;;;;;;5037080;28;20016;-88
2023/01/02 13:05:42;;;;;;;;;;;;;;;;;;5043276;28;19913;-87
2023/01/02 13:08:07;;;;;;;;;;;;;;;;;;5042180;28;19913;-89
2023/01/02 13:10:33;;;;;;;;;;;;;;;;;;5010054;28;19920;-87
2023/01/02 13:12:58;;;;;;;;;;;;;;;;;;5044082;28;19936;-91
2023/01/02 13:15:24;;;;;;;;;;;;;;;;;;5019208;28;19968;-88
2023/01/02 13:17:49;;;;;;;;;;;;;;;;;;5060235;28;20273;-88
2023/01/02 13:20:15;;;;;;;;;;;;;;;;;;5058788;28;19920;-86
2023/01/02 13:22:41;;;;;;;;;;;;;;;;;;5059614;28;19935;-87
2023/01/02 13:25:06;;;;;;;;;;;;;;;;;;5057329;28;20264;-87
2023/01/02 13:27:32;;;;;;;;;;;;;;;;;;5055908;28;19924;-87
2023/01/02 13:29:57;;;;;;;;;;;;;;;;;;5056288;28;19919;-91
2023/01/02 13:32:23;;;;;;;;;;;;;;;;;;5036910;28;20319;-89
2023/01/02 13:34:53;;;;;;;;;;;;;;;;;;5035173;28;19913;-90
2023/01/02 13:37:19;;;;;;;;;;;;;;;;;;5034580;28;19960;-89
2023/01/02 13:39:44;;;;;;;;;;;;;;;;;;5054547;28;20426;-89
2023/01/02 13:44:54;;;;;;;;;;;;;;;;;;5037752;28;19977;-89
2023/01/02 13:47:20;;;;;;;;;;;;;;;;;;5040102;28;19916;-88
2023/01/02 13:49:45;;;;;;;;;;;;;;;;;;5065840;28;19913;-88
2023/01/02 13:52:10;;;;;;;;;;;;;;;;;;5034349;28;19909;-87
2023/01/02 13:54:36;;;;;;;;;;;;;;;;;;5039586;28;19913;-90
2023/01/02 13:57:01;;;;;;;;;;;;;;;;;;5042108;28;19912;-90
2023/01/02 13:59:27;;;;;;;;;;;;;;;;;;5075965;28;19901;-90
2023/01/02 14:01:55;;;;;;;;;;;;;;;;;;5043646;28;19981;-90
2023/01/02 14:04:22;;;;;;;;;;;;;;;;;;5056501;28;20369;-90
2023/01/02 14:06:50;;;;;;;;;;;;;;;;;;5043593;28;19975;-89
2023/01/02 14:09:15;;;;;;;;;;;;;;;;;;5076815;28;19920;-90
2023/01/02 14:11:41;;;;;;;;;;;;;;;;;;5075065;28;19913;-89
2023/01/02 14:14:06;;;;;;;;;;;;;;;;;;5078521;28;19921;-89
2023/01/02 14:16:31;;;;;;;;;;;;;;;;;;5066330;28;19915;-88
2023/01/02 14:18:57;;;;;;;;;;;;;;;;;;5060855;28;19913;-88
2023/01/02 14:21:23;;;;;;;;;;;;;;;;;;5071727;28;19913;-78
2023/01/02 14:23:48;;;;;;;;;;;;;;;;;;5050562;28;19921;-77
2023/01/02 14:26:13;;;;;;;;;;;;;;;;;;5035225;28;20321;-78
2023/01/02 14:28:39;;;;;;;;;;;;;;;;;;5035682;28;19982;-78
2023/01/02 14:31:04;;;;;;;;;;;;;;;;;;5034865;28;19921;-78
2023/01/02 14:33:30;;;;;;;;;;;;;;;;;;5035564;28;19917;-78
2023/01/02 14:35:58;;;;;;;;;;;;;;;;;;5034473;28;20373;-77
2023/01/02 14:38:23;;;;;;;;;;;;;;;;;;5050669;28;19967;-77
2023/01/02 14:40:49;;;;;;;;;;;;;;;;;;5036272;28;19913;-77
2023/01/02 14:43:30;;;;;;;;;;;;;;;;;;5041441;28;19925;-77
2023/01/02 14:45:55;;;;;;;;;;;;;;;;;;5053868;28;19916;-76
2023/01/02 14:48:21;;;;;;;;;;;;;;;;;;5055192;28;19959;-77
2023/01/02 14:50:46;;;;;;;;;;;;;;;;;;5054042;28;19967;-76
2023/01/02 14:53:12;;;;;;;;;;;;;;;;;;5054796;28;19924;-77
2023/01/02 14:55:37;;;;;;;;;;;;;;;;;;5053755;28;19961;-77
2023/01/02 14:58:03;;;;;;;;;;;;;;;;;;5054709;28;19917;-76
2023/01/02 15:00:28;;;;;;;;;;;;;;;;;;5049886;28;20390;-77
2023/01/02 15:02:54;;;;;;;;;;;;;;;;;;5050034;28;20384;-77
2023/01/02 15:05:19;;;;;;;;;;;;;;;;;;5034330;28;20422;-77
2023/01/02 15:07:45;;;;;;;;;;;;;;;;;;5034846;28;19917;-77
2023/01/02 15:10:10;;;;;;;;;;;;;;;;;;5058967;28;19913;-83
2023/01/02 15:15:20;;;;;;;;;;;;;;;;;;5047569;28;19897;-85
2023/01/02 15:17:46;;;;;;;;;;;;;;;;;;5048122;28;19920;-85
2023/01/02 15:20:11;;;;;;;;;;;;;;;;;;5045191;28;19913;-87
2023/01/02 15:22:37;;;;;;;;;;;;;;;;;;5064945;28;20329;-79
2023/01/02 15:25:02;;;;;;;;;;;;;;;;;;5046629;28;19913;-84
2023/01/02 15:27:27;;;;;;;;;;;;;;;;;;5042052;28;19944;-90
2023/01/02 15:29:53;;;;;;;;;;;;;;;;;;5030240;28;19913;-84
2023/01/02 15:32:18;;;;;;;;;;;;;;;;;;5037372;28;20356;-84
2023/01/02 15:34:49;;;;;;;;;;;;;;;;;;5037386;28;19913;-83
2023/01/02 15:37:14;;;;;;;;;;;;;;;;;;5037667;28;19913;-82
2023/01/02 15:39:40;;;;;;;;;;;;;;;;;;5034963;28;20012;-83
2023/01/02 15:45:08;;;;;;;;;;;;;;;;;;5038337;28;20376;-85
2023/01/02 15:45:09;;;;;;;;;;;;;;;;;;5040724;28;19924;-84
2023/01/02 15:47:34;;;;;;;;;;;;;;;;;;5036760;28;20391;-84
2023/01/02 15:49:59;;;;;;;;;;;;;;;;;;5051161;28;20008;-82
2023/01/02 15:52:25;;;;;;;;;;;;;;;;;;5036939;28;19923;-84
2023/01/02 15:54:50;;;;;;;;;;;;;;;;;;5036391;28;20381;-81
2023/01/02 15:57:16;;;;;;;;;;;;;;;;;;5034017;28;19920;-84
2023/01/02 15:59:41;;;;;;;;;;;;;;;;;;5033439;28;19946;-82
2023/01/02 16:02:06;;;;;;;;;;;;;;;;;;5037849;28;19923;-81
2023/01/02 16:04:32;;;;;;;;;;;;;;;;;;5036356;28;20427;-82
2023/01/02 16:06:57;;;;;;;;;;;;;;;;;;5034066;28;19913;-83
2023/01/02 16:09:23;;;;;;;;;;;;;;;;;;5049206;28;20385;-82
2023/01/02 16:11:49;;;;;;;;;;;;;;;;;;5032059;28;19909;-82
2023/01/02 16:14:20;;;;;;;;;;;;;;;;;;5048641;28;19983;-84
2023/01/02 16:16:46;;;;;;;;;;;;;;;;;;5032633;28;20358;-84
2023/01/02 16:19:11;;;;;;;;;;;;;;;;;;5035691;28;19909;-83
2023/01/02 16:21:37;;;;;;;;;;;;;;;;;;5050411;28;20390;-83
2023/01/02 16:24:03;;;;;;;;;;;;;;;;;;5052370;28;19913;-84
2023/01/02 16:26:28;;;;;;;;;;;;;;;;;;5039752;28;20384;-83
2023/01/02 16:28:54;;;;;;;;;;;;;;;;;;5039298;28;19920;-85
2023/01/02 16:31:20;;;;;;;;;;;;;;;;;;5059254;28;19947;-84
2023/01/02 16:33:45;;;;;;;;;;;;;;;;;;5033616;28;19945;-85
2023/01/02 16:36:10;;;;;;;;;;;;;;;;;;5034035;28;19913;-85
2023/01/02 16:38:36;;;;;;;;;;;;;;;;;;5033378;28;20372;-85
2023/01/02 16:41:04;;;;;;;;;;;;;;;;;;5034884;28;19909;-85
2023/01/02 16:43:29;;;;;;;;;;;;;;;;;;5045292;28;20011;-84
2023/01/02 16:45:55;;;;;;;;;;;;;;;;;;5052157;28;19956;-85
2023/01/02 16:48:20;;;;;;;;;;;;;;;;;;5052051;28;19913;-84